Time;durP1;ratioP1;P1;durP2;ratioP2;P2;SDS_P1;SDS_P2;PMS_P1;PMS_P2;Temp;Humidity;BMP_temperature;BMP_pressure;BME280_temperature;BME280_humidity;BME280_pressure;Samples;Min_cycle;Max_cycle;Signal;HPM_P1;HPM_P2
2021/12/13 00:01:28;;;;;;;1.15;1.15;;;3.80;99.90;;;;;;5134941;27;20134;-86
2021/12/13 00:04:01;;;;;;;1.40;1.40;;;3.80;99.90;;;;;;5117668;27;20454;-85
2021/12/13 00:06:34;;;;;;;2.00;1.73;;;3.90;99.90;;;;;;5117164;27;20050;-85
2021/12/13 00:09:13;;;;;;;1.30;1.20;;;3.80;99.90;;;;;;5115410;27;20369;-85
2021/12/13 00:11:47;;;;;;;2.20;1.80;;;3.90;99.90;;;;;;5115678;27;20051;-85
2021/12/13 00:14:33;;;;;;;1.65;1.60;;;3.90;99.90;;;;;;5115485;27;20045;-85
2021/12/13 00:17:06;;;;;;;1.52;1.40;;;4.00;99.90;;;;;;5115221;27;20047;-85
2021/12/13 00:19:36;;;;;;;;;;;3.90;99.90;;;;;;5115894;27;20077;-85
2021/12/13 00:22:19;;;;;;;1.52;1.42;;;4.00;99.90;;;;;;5117502;27;19923;-86
2021/12/13 00:24:48;;;;;;;1.70;1.60;;;4.00;99.90;;;;;;5135349;27;20051;-85
2021/12/13 00:27:21;;;;;;;4.40;2.00;;;4.00;99.90;;;;;;5135175;27;20053;-85
2021/12/13 00:29:53;;;;;;;;;;;3.90;99.90;;;;;;5135902;27;20047;-85
2021/12/13 00:32:46;;;;;;;2.17;1.23;;;3.90;99.90;;;;;;5117415;27;19919;-86
2021/12/13 00:35:19;;;;;;;1.52;1.40;;;3.90;99.90;;;;;;5134949;27;20053;-86
2021/12/13 00:37:51;;;;;;;1.45;1.35;;;4.10;99.90;;;;;;5117285;27;20069;-86
2021/12/13 00:40:24;;;;;;;1.30;1.20;;;4.10;99.90;;;;;;5134759;27;20043;-86
2021/12/13 00:42:56;;;;;;;2.95;1.77;;;4.10;99.90;;;;;;5116737;27;20061;-86
2021/12/13 00:45:27;;;;;;;1.37;1.37;;;4.10;99.90;;;;;;5116914;27;20439;-86
2021/12/13 00:47:54;;;;;;;1.77;1.67;;;4.00;99.90;;;;;;5135220;27;20050;-86
2021/12/13 00:50:37;;;;;;;2.13;1.88;;;3.90;99.90;;;;;;5134828;27;20054;-86
2021/12/13 00:53:05;;;;;;;1.20;1.20;;;4.00;99.90;;;;;;5116868;27;20379;-85
2021/12/13 00:55:34;;;;;;;1.63;1.25;;;4.20;99.90;;;;;;5116666;27;20082;-86
2021/12/13 00:58:11;;;;;;;1.73;1.63;;;4.20;99.90;;;;;;5116604;27;20069;-85
2021/12/13 01:00:48;;;;;;;2.10;1.63;;;4.10;99.90;;;;;;5134584;27;20047;-86
2021/12/13 01:03:22;;;;;;;1.80;1.70;;;4.20;99.90;;;;;;5116012;27;20100;-85
2021/12/13 01:06:28;;;;;;;1.73;1.63;;;4.10;99.90;;;;;;5117355;27;20103;-87
2021/12/13 01:09:33;;;;;;;3.95;1.35;;;4.00;99.90;;;;;;5121015;27;20089;-87
2021/12/13 01:12:04;;;;;;;2.55;1.70;;;4.10;99.90;;;;;;5117608;27;20047;-87
2021/12/13 01:14:56;;;;;;;2.40;1.48;;;4.20;99.90;;;;;;5116221;28;20039;-86
2021/12/13 01:20:42;;;;;;;1.00;1.00;;;4.00;99.90;;;;;;5133515;27;20138;-87
2021/12/13 01:23:17;;;;;;;2.42;1.58;;;4.00;99.90;;;;;;5114316;27;20070;-87
2021/12/13 01:26:02;;;;;;;2.58;2.20;;;4.10;99.90;;;;;;5114555;27;20047;-86
2021/12/13 01:28:40;;;;;;;3.10;2.90;;;4.00;99.90;;;;;;5114392;28;20051;-87
2021/12/13 01:31:23;;;;;;;2.03;1.85;;;3.90;99.90;;;;;;5114071;28;20090;-87
2021/12/13 01:33:53;;;;;;;1.83;1.73;;;3.90;99.90;;;;;;5130374;28;20119;-86
2021/12/13 01:36:27;;;;;;;3.90;1.77;;;3.90;99.90;;;;;;5133900;28;20054;-87
2021/12/13 01:39:08;;;;;;;1.70;1.60;;;4.10;99.90;;;;;;5116148;28;20089;-86
2021/12/13 01:41:47;;;;;;;1.85;1.75;;;4.10;99.90;;;;;;5114736;28;20047;-87
2021/12/13 01:44:23;;;;;;;2.15;2.05;;;4.10;99.90;;;;;;5109978;28;20050;-87
2021/12/13 01:46:53;;;;;;;1.83;1.83;;;4.10;99.90;;;;;;5116068;28;20053;-87
2021/12/13 01:49:29;;;;;;;2.08;1.98;;;4.10;99.90;;;;;;5116118;28;20047;-87
2021/12/13 01:51:58;;;;;;;1.70;1.60;;;4.10;99.90;;;;;;5116592;27;20092;-87
2021/12/13 01:54:27;;;;;;;4.25;1.70;;;4.20;99.90;;;;;;5120158;27;20541;-87
2021/12/13 01:57:22;;;;;;;2.00;1.80;;;4.30;99.90;;;;;;5138229;27;20066;-87
2021/12/13 02:00:17;;;;;;;2.08;1.98;;;4.30;99.90;;;;;;5138200;27;20057;-87
2021/12/13 02:02:50;;;;;;;1.42;1.40;;;4.40;99.90;;;;;;5120126;27;20069;-87
2021/12/13 02:05:27;;;;;;;1.58;1.48;;;4.40;99.90;;;;;;5119838;27;20039;-87
2021/12/13 02:08:12;;;;;;;1.30;1.30;;;4.40;99.90;;;;;;5138077;27;20090;-87
2021/12/13 02:10:46;;;;;;;1.80;1.70;;;4.30;99.90;;;;;;5119738;27;20078;-87
2021/12/13 02:13:23;;;;;;;1.70;1.60;;;4.40;99.90;;;;;;5137646;27;20134;-87
2021/12/13 02:18:45;;;;;;;1.20;1.20;;;4.50;99.90;;;;;;5136497;27;20047;-87
2021/12/13 02:21:23;;;;;;;3.65;2.00;;;4.40;99.90;;;;;;5137756;27;20043;-87
2021/12/13 02:23:52;;;;;;;1.23;1.20;;;4.40;99.90;;;;;;5139510;27;20043;-88
2021/12/13 02:26:19;;;;;;;1.10;1.10;;;4.50;99.90;;;;;;5127016;27;20133;-87
2021/12/13 02:28:52;;;;;;;1.65;1.05;;;4.50;99.90;;;;;;5119403;27;20491;-87
2021/12/13 02:31:27;;;;;;;0.93;0.90;;;4.50;99.90;;;;;;5137041;27;20051;-87
2021/12/13 02:33:58;;;;;;;1.25;0.95;;;4.50;99.90;;;;;;5118780;27;20202;-87
2021/12/13 02:36:34;;;;;;;1.88;1.17;;;4.50;99.90;;;;;;5118430;27;20057;-87
2021/12/13 02:39:25;;;;;;;3.03;1.33;;;4.50;99.90;;;;;;5135903;27;20057;-87
2021/12/13 02:41:53;;;;;;;1.70;0.77;;;4.50;99.90;;;;;;5119219;27;20471;-87
2021/12/13 02:44:24;;;;;;;1.02;0.80;;;4.60;99.90;;;;;;5137089;27;20053;-87
2021/12/13 02:46:55;;;;;;;2.15;1.00;;;4.60;99.90;;;;;;5137067;27;20128;-87
2021/12/13 02:49:22;;;;;;;2.70;1.30;;;4.60;99.90;;;;;;5119054;27;20047;-87
2021/12/13 02:52:01;;;;;;;0.68;0.68;;;4.60;99.90;;;;;;5137265;27;20043;-87
2021/12/13 02:54:38;;;;;;;0.95;0.80;;;4.60;99.90;;;;;;5118541;27;20490;-87
2021/12/13 02:57:32;;;;;;;0.80;0.80;;;4.60;99.90;;;;;;5118454;27;20445;-87
2021/12/13 03:00:20;;;;;;;1.35;0.60;;;4.60;99.90;;;;;;5119031;27;20049;-87
2021/12/13 03:02:49;;;;;;;2.03;0.82;;;4.60;99.90;;;;;;5134705;27;20051;-86
2021/12/13 03:05:22;;;;;;;0.98;0.80;;;4.60;99.90;;;;;;5117322;27;20466;-87
2021/12/13 03:07:54;;;;;;;1.20;0.82;;;4.50;99.90;;;;;;5135311;27;20053;-86
2021/12/13 03:10:29;;;;;;;0.73;0.73;;;4.50;99.90;;;;;;5135684;27;20406;-87
2021/12/13 03:12:56;;;;;;;0.80;0.80;;;4.50;99.90;;;;;;5118190;27;20479;-87
2021/12/13 03:15:26;;;;;;;1.65;0.90;;;4.50;99.90;;;;;;5136692;27;20486;-86
2021/12/13 03:18:12;;;;;;;0.95;0.95;;;4.40;99.90;;;;;;5135390;27;20051;-87
2021/12/13 03:21:02;;;;;;;1.52;1.10;;;4.50;99.90;;;;;;5136016;27;20049;-87
2021/12/13 03:23:34;;;;;;;1.98;1.10;;;4.40;99.90;;;;;;5117930;27;20051;-87
2021/12/13 03:26:20;;;;;;;1.02;1.02;;;4.30;99.90;;;;;;5118499;27;20057;-87
2021/12/13 03:29:05;;;;;;;1.30;1.30;;;4.40;99.90;;;;;;5116113;27;20080;-87
2021/12/13 03:31:38;;;;;;;1.48;1.40;;;4.40;99.90;;;;;;5135054;27;20054;-87
2021/12/13 03:34:24;;;;;;;2.42;2.28;;;4.40;99.90;;;;;;5118184;27;20505;-87
2021/12/13 03:36:57;;;;;;;2.88;2.20;;;4.40;99.90;;;;;;5117373;27;20094;-87
2021/12/13 03:39:39;;;;;;;1.70;1.67;;;4.30;99.90;;;;;;5119528;27;20402;-87
2021/12/13 03:42:10;;;;;;;2.20;2.10;;;4.40;99.90;;;;;;5122368;27;20051;-87
2021/12/13 03:44:46;;;;;;;2.10;2.00;;;4.40;99.90;;;;;;5117330;27;20138;-87
2021/12/13 03:47:25;;;;;;;4.18;2.50;;;4.40;99.90;;;;;;5117567;27;20053;-87
2021/12/13 03:49:57;;;;;;;2.83;2.60;;;4.40;99.90;;;;;;5117928;27;20551;-87
2021/12/13 03:52:28;;;;;;;5.95;2.60;;;4.50;99.90;;;;;;5118070;27;20489;-87
2021/12/13 03:54:57;;;;;;;4.07;2.60;;;4.40;99.90;;;;;;5135389;27;20503;-87
2021/12/13 03:57:28;;;;;;;1.95;1.85;;;4.50;99.90;;;;;;5117701;27;20158;-87
2021/12/13 03:59:56;;;;;;;2.75;2.55;;;4.50;99.90;;;;;;5135796;27;20517;-87
2021/12/13 04:02:32;;;;;;;5.72;2.72;;;4.40;99.90;;;;;;5117669;27;20047;-87
2021/12/13 04:05:05;;;;;;;3.00;2.90;;;4.30;99.90;;;;;;5117567;27;20476;-87
2021/12/13 04:07:37;;;;;;;3.65;3.28;;;4.30;99.90;;;;;;5135561;27;20053;-87
2021/12/13 04:10:10;;;;;;;3.97;3.65;;;4.30;99.90;;;;;;5117417;27;20047;-86
2021/12/13 04:12:45;;;;;;;;;;;4.30;99.90;;;;;;5135779;27;20051;-87
2021/12/13 04:15:20;;;;;;;3.10;2.88;;;4.30;99.90;;;;;;5116616;27;19926;-87
2021/12/13 04:18:01;;;;;;;3.33;3.10;;;4.40;99.90;;;;;;5117469;27;20043;-87
2021/12/13 04:20:33;;;;;;;7.32;3.80;;;4.50;99.90;;;;;;5117373;27;20126;-86
2021/12/13 04:23:08;;;;;;;3.30;3.10;;;4.50;99.90;;;;;;5117240;27;20418;-87
2021/12/13 04:25:39;;;;;;;4.20;3.80;;;4.50;99.90;;;;;;5117235;27;20115;-87
2021/12/13 04:28:20;;;;;;;9.02;4.07;;;4.50;99.90;;;;;;5117209;27;20047;-86
2021/12/13 04:30:51;;;;;;;4.30;3.92;;;4.50;99.90;;;;;;5116570;27;20138;-87
2021/12/13 04:33:29;;;;;;;3.45;3.15;;;4.40;99.90;;;;;;5116491;27;20043;-87
2021/12/13 04:36:01;;;;;;;4.10;3.17;;;4.40;99.90;;;;;;5116992;27;20053;-87
2021/12/13 04:38:50;;;;;;;3.42;3.05;;;4.50;99.90;;;;;;5117034;27;20050;-86
2021/12/13 04:41:24;;;;;;;2.13;2.03;;;4.50;99.90;;;;;;5134571;27;20043;-86
2021/12/13 04:44:10;;;;;;;4.15;2.33;;;4.60;99.90;;;;;;5115586;27;20053;-87
2021/12/13 04:46:40;;;;;;;3.63;2.38;;;4.60;99.90;;;;;;5115705;27;20049;-86
2021/12/13 04:49:13;;;;;;;2.28;2.08;;;4.60;99.90;;;;;;5115587;27;20047;-86
2021/12/13 04:51:50;;;;;;;2.80;2.40;;;4.60;99.90;;;;;;5116517;27;20043;-87
2021/12/13 04:54:17;;;;;;;7.07;2.17;;;4.60;99.90;;;;;;5117103;27;20075;-87
2021/12/13 04:56:45;;;;;;;5.03;3.00;;;4.50;99.90;;;;;;5144821;27;20138;-87
2021/12/13 04:59:14;;;;;;;5.78;3.30;;;4.60;99.90;;;;;;5132971;27;20049;-86
2021/12/13 05:01:44;;;;;;;3.90;3.45;;;4.50;99.90;;;;;;5114499;27;20039;-87
2021/12/13 05:04:12;;;;;;;3.38;2.80;;;4.50;99.90;;;;;;5132373;27;20070;-87
2021/12/13 05:06:43;;;;;;;6.43;3.70;;;4.60;99.90;;;;;;5116020;27;20130;-87
2021/12/13 05:09:16;;;;;;;3.58;3.25;;;4.60;99.90;;;;;;5133626;27;20051;-87
2021/12/13 05:11:55;;;;;;;6.38;3.08;;;4.60;99.90;;;;;;5115296;27;20047;-87
2021/12/13 05:14:34;;;;;;;4.70;2.95;;;4.60;99.90;;;;;;5109981;27;20051;-87
2021/12/13 05:17:11;;;;;;;5.15;3.83;;;4.60;99.90;;;;;;5133410;27;20139;-87
2021/12/13 05:19:46;;;;;;;4.35;3.90;;;4.70;99.90;;;;;;5134482;27;20043;-87
2021/12/13 05:22:14;;;;;;;3.70;3.50;;;4.70;99.90;;;;;;5133313;27;20134;-87
2021/12/13 05:24:51;;;;;;;4.32;2.95;;;4.70;99.90;;;;;;5114489;28;20134;-87
2021/12/13 05:27:26;;;;;;;2.45;2.35;;;4.70;99.90;;;;;;5132084;27;20044;-87
2021/12/13 05:30:15;;;;;;;3.60;2.30;;;4.70;99.90;;;;;;5114319;28;20427;-87
2021/12/13 05:32:47;;;;;;;2.95;2.45;;;4.70;99.90;;;;;;5115976;28;20100;-86
2021/12/13 05:35:21;;;;;;;4.97;2.13;;;4.70;99.90;;;;;;5116143;28;20051;-87
2021/12/13 05:37:53;;;;;;;2.85;1.90;;;4.70;99.90;;;;;;5134415;28;20069;-86
2021/12/13 05:40:25;;;;;;;2.88;1.95;;;4.70;99.90;;;;;;5134074;28;20047;-86
2021/12/13 05:42:56;;;;;;;1.85;1.75;;;4.70;99.90;;;;;;5134190;28;20049;-87
2021/12/13 05:45:41;;;;;;;4.03;2.45;;;4.60;99.90;;;;;;5133876;28;20047;-87
2021/12/13 05:48:17;;;;;;;5.25;2.20;;;4.70;99.90;;;;;;5127690;28;20043;-87
2021/12/13 05:50:53;;;;;;;5.82;2.30;;;4.70;99.90;;;;;;5115760;28;20414;-87
2021/12/13 05:53:26;;;;;;;3.00;2.80;;;4.70;99.90;;;;;;5116099;28;20055;-87
2021/12/13 05:55:55;;;;;;;;;;;4.50;99.90;;;;;;5134582;28;20134;-87
2021/12/13 05:58:33;;;;;;;6.63;3.83;;;4.50;99.90;;;;;;5115695;28;19932;-87
2021/12/13 06:01:04;;;;;;;5.88;3.65;;;4.60;99.90;;;;;;5115764;28;20057;-87
2021/12/13 06:03:35;;;;;;;3.78;3.47;;;4.60;99.90;;;;;;5133484;28;20057;-87
2021/12/13 06:06:10;;;;;;;4.72;4.20;;;4.60;99.90;;;;;;5115541;28;20134;-87
2021/12/13 06:08:52;;;;;;;3.75;3.42;;;4.60;99.90;;;;;;5133793;28;20047;-87
2021/12/13 06:11:32;;;;;;;9.05;6.55;;;4.60;99.90;;;;;;5116102;28;20543;-87
2021/12/13 06:14:16;;;;;;;6.60;5.45;;;4.60;99.90;;;;;;5131755;28;20089;-87
2021/12/13 06:16:48;;;;;;;;;;;4.70;99.90;;;;;;5134223;28;20474;-87
2021/12/13 06:19:31;;;;;;;2.88;2.67;;;4.70;99.90;;;;;;5115106;28;19925;-87
2021/12/13 06:22:07;;;;;;;;;;;4.80;99.90;;;;;;5116109;28;20079;-87
2021/12/13 06:24:40;;;;;;;5.68;4.32;;;4.80;99.90;;;;;;5115368;28;19919;-87
2021/12/13 06:27:17;;;;;;;5.82;3.60;;;4.80;99.90;;;;;;5133482;28;20043;-87
2021/12/13 06:29:49;;;;;;;7.40;3.67;;;4.80;99.90;;;;;;5114829;28;20073;-88
2021/12/13 06:32:34;;;;;;;6.45;2.78;;;4.80;99.90;;;;;;5115774;28;20054;-87
2021/12/13 06:35:33;;;;;;;4.47;2.30;;;4.80;99.90;;;;;;5133555;28;20061;-87
2021/12/13 06:38:19;;;;;;;3.28;2.38;;;4.80;99.90;;;;;;5114948;27;20398;-87
2021/12/13 06:41:06;;;;;;;2.00;1.90;;;4.90;99.90;;;;;;5135440;27;20077;-88
2021/12/13 06:43:56;;;;;;;2.30;1.88;;;4.90;99.90;;;;;;5117437;27;20047;-87
2021/12/13 06:46:23;;;;;;;3.22;1.70;;;4.90;99.90;;;;;;5135229;27;20541;-87
2021/12/13 06:48:58;;;;;;;2.20;2.10;;;4.80;99.90;;;;;;5117375;27;20129;-87
2021/12/13 06:51:40;;;;;;;2.05;1.92;;;4.70;99.90;;;;;;5118639;27;20266;-87
2021/12/13 06:54:12;;;;;;;1.85;1.77;;;4.60;99.90;;;;;;5137177;27;20082;-87
2021/12/13 06:56:42;;;;;;;2.40;2.20;;;4.80;99.90;;;;;;5137467;27;20079;-87
2021/12/13 06:59:15;;;;;;;3.35;2.45;;;4.70;99.90;;;;;;5119696;27;20054;-88
2021/12/13 07:01:42;;;;;;;2.63;2.40;;;4.70;99.90;;;;;;5118818;27;20376;-87
2021/12/13 07:04:12;;;;;;;3.88;3.58;;;4.80;99.90;;;;;;5137344;27;20402;-87
2021/12/13 07:06:44;;;;;;;2.72;2.40;;;4.60;99.90;;;;;;5119887;27;20080;-87
2021/12/13 07:09:13;;;;;;;2.60;2.28;;;4.70;99.90;;;;;;5118780;27;20134;-87
2021/12/13 07:11:54;;;;;;;4.53;3.30;;;4.70;99.90;;;;;;5118708;27;20114;-87
2021/12/13 07:14:38;;;;;;;2.92;2.72;;;4.80;99.90;;;;;;5136774;27;20061;-87
2021/12/13 07:17:15;;;;;;;3.22;2.60;;;4.90;99.90;;;;;;5118387;27;20051;-87
2021/12/13 07:19:45;;;;;;;2.80;2.60;;;4.90;99.90;;;;;;5136830;27;20049;-87
2021/12/13 07:22:21;;;;;;;3.65;2.45;;;5.00;99.90;;;;;;5136779;27;20049;-87
2021/12/13 07:24:52;;;;;;;3.17;2.20;;;5.00;99.90;;;;;;5136865;27;20057;-87
2021/12/13 07:27:28;;;;;;;6.80;3.25;;;5.00;99.90;;;;;;5136938;27;20410;-87
2021/12/13 07:30:05;;;;;;;5.43;3.15;;;5.10;99.90;;;;;;5136233;27;20051;-87
2021/12/13 07:32:46;;;;;;;3.38;3.08;;;5.00;99.90;;;;;;5118096;27;20486;-87
2021/12/13 07:35:16;;;;;;;4.25;3.30;;;5.10;99.90;;;;;;5136451;27;20058;-87
2021/12/13 07:37:58;;;;;;;3.30;2.90;;;5.10;99.90;;;;;;5118543;27;20530;-88
2021/12/13 07:40:43;;;;;;;2.88;2.67;;;5.10;99.90;;;;;;5116760;27;20475;-87
2021/12/13 07:43:21;;;;;;;7.13;3.17;;;5.10;99.90;;;;;;5118208;27;20044;-87
2021/12/13 07:46:06;;;;;;;7.78;4.07;;;5.00;99.90;;;;;;5136434;27;20047;-87
2021/12/13 07:48:37;;;;;;;4.13;2.97;;;4.90;99.90;;;;;;5118154;27;20426;-87
2021/12/13 07:51:16;;;;;;;8.50;3.25;;;4.90;99.90;;;;;;5117978;27;20130;-87
2021/12/13 07:53:52;;;;;;;3.38;3.10;;;5.00;99.90;;;;;;5115867;27;20403;-88
2021/12/13 07:56:23;;;;;;;5.07;3.53;;;5.10;99.90;;;;;;5117353;27;20061;-87
2021/12/13 07:58:58;;;;;;;5.97;4.05;;;5.20;99.90;;;;;;5117535;27;20039;-87
2021/12/13 08:01:28;;;;;;;6.85;4.72;;;5.20;99.90;;;;;;5117311;27;20133;-87
2021/12/13 08:04:17;;;;;;;9.05;4.10;;;5.20;99.90;;;;;;5117724;27;20529;-87
2021/12/13 08:06:51;;;;;;;7.97;5.18;;;5.20;99.90;;;;;;5116576;27;20502;-87
2021/12/13 08:09:21;;;;;;;6.70;5.25;;;5.20;99.90;;;;;;5134963;27;20039;-87
2021/12/13 08:11:53;;;;;;;5.78;4.75;;;5.30;99.90;;;;;;5135390;27;20466;-87
2021/12/13 08:14:29;;;;;;;4.38;4.03;;;5.40;99.90;;;;;;5116862;27;20058;-87
2021/12/13 08:17:08;;;;;;;10.40;5.50;;;5.30;99.90;;;;;;5117130;27;20051;-86
2021/12/13 08:19:36;;;;;;;6.75;3.72;;;5.40;99.90;;;;;;5116875;27;20046;-87
2021/12/13 08:22:09;;;;;;;5.63;4.10;;;5.40;99.90;;;;;;5135293;27;20051;-87
2021/12/13 08:24:43;;;;;;;5.03;3.33;;;5.50;99.90;;;;;;5116747;27;20061;-87
2021/12/13 08:27:20;;;;;;;6.47;3.45;;;5.50;99.90;;;;;;5116405;27;20517;-87
2021/12/13 08:29:48;;;;;;;5.90;5.20;;;5.60;99.90;;;;;;5116284;27;20047;-86
2021/12/13 08:32:19;;;;;;;8.80;8.00;;;5.70;99.90;;;;;;5117101;27;20078;-87
2021/12/13 08:34:57;;;;;;;18.20;16.30;;;5.70;99.90;;;;;;5135152;27;20490;-87
2021/12/13 08:37:28;;;;;;;14.55;11.45;;;5.80;99.90;;;;;;5116802;27;20062;-88
2021/12/13 08:40:22;;;;;;;16.20;14.63;;;5.90;99.90;;;;;;5134994;27;20057;-86
2021/12/13 08:42:51;;;;;;;12.27;11.27;;;6.00;99.90;;;;;;5116701;27;20486;-88
2021/12/13 08:45:24;;;;;;;12.88;11.75;;;6.10;99.90;;;;;;5117138;27;20497;-87
2021/12/13 08:48:13;;;;;;;3.35;3.15;;;6.10;99.90;;;;;;5134602;27;20039;-87
2021/12/13 08:50:46;;;;;;;6.07;5.57;;;6.10;99.90;;;;;;5134608;27;20047;-87
2021/12/13 08:53:19;;;;;;;;;;;6.10;99.90;;;;;;5116876;27;20066;-87
2021/12/13 08:56:04;;;;;;;7.65;7.05;;;6.10;99.90;;;;;;5116327;27;19974;-87
2021/12/13 08:58:31;;;;;;;7.47;6.88;;;6.10;99.90;;;;;;5115911;27;20505;-87
2021/12/13 09:01:09;;;;;;;7.18;6.57;;;6.20;99.90;;;;;;5115799;27;20047;-87
2021/12/13 09:03:44;;;;;;;4.13;3.83;;;6.20;99.90;;;;;;5116193;27;20487;-87
2021/12/13 09:06:17;;;;;;;3.47;3.28;;;6.30;99.90;;;;;;5116578;27;20061;-87
2021/12/13 09:08:49;;;;;;;4.30;4.00;;;6.20;99.90;;;;;;5116193;27;20054;-87
2021/12/13 09:11:33;;;;;;;4.10;3.80;;;6.30;99.90;;;;;;5116196;27;20142;-87
2021/12/13 09:14:21;;;;;;;4.82;3.63;;;6.20;99.90;;;;;;5116078;27;20062;-86
2021/12/13 09:17:07;;;;;;;7.43;5.07;;;6.30;99.90;;;;;;5116342;28;20058;-87
2021/12/13 09:20:16;;;;;;;86.80;34.55;;;6.40;99.90;;;;;;5115604;27;20085;-88
2021/12/13 09:22:56;;;;;;;32.25;15.15;;;6.30;99.90;;;;;;5134462;27;20046;-87
2021/12/13 09:25:29;;;;;;;11.85;7.65;;;6.30;99.90;;;;;;5116363;27;20051;-87
2021/12/13 09:28:04;;;;;;;6.50;4.85;;;6.20;99.90;;;;;;5133241;27;20517;-87
2021/12/13 09:30:48;;;;;;;9.23;8.32;;;6.00;99.90;;;;;;5132409;27;20053;-87
2021/12/13 09:33:35;;;;;;;6.07;4.28;;;5.90;99.90;;;;;;5114445;28;20092;-87
2021/12/13 09:36:08;;;;;;;5.30;3.70;;;5.80;99.90;;;;;;5114281;28;20051;-87
2021/12/13 09:38:43;;;;;;;7.45;5.30;;;5.90;99.90;;;;;;5132831;28;20047;-88
2021/12/13 09:41:10;;;;;;;5.10;4.70;;;6.10;99.90;;;;;;5114299;28;20445;-87
2021/12/13 09:43:46;;;;;;;15.18;8.45;;;6.20;99.90;;;;;;5115870;28;20051;-87
2021/12/13 09:46:30;;;;;;;8.13;6.38;;;6.30;99.90;;;;;;5115971;28;20049;-87
2021/12/13 09:49:00;;;;;;;5.57;4.78;;;6.30;99.90;;;;;;5133569;28;20043;-87
2021/12/13 09:51:33;;;;;;;8.10;6.35;;;6.20;99.90;;;;;;5115959;28;20047;-87
2021/12/13 09:54:06;;;;;;;5.22;4.00;;;6.30;99.90;;;;;;5115795;28;20088;-87
2021/12/13 09:56:37;;;;;;;4.78;3.20;;;6.40;99.90;;;;;;5112400;28;20445;-87
2021/12/13 09:59:31;;;;;;;16.65;5.80;;;6.60;99.90;;;;;;5110269;28;20086;-87
2021/12/13 10:02:00;;;;;;;49.92;12.32;;;6.70;99.90;;;;;;5105998;28;20047;-87
2021/12/13 10:04:37;;;;;;;35.85;9.00;;;6.70;99.90;;;;;;5133666;28;20039;-87
2021/12/13 10:07:13;;;;;;;17.02;6.10;;;6.80;99.90;;;;;;5115783;28;20055;-87
2021/12/13 10:09:52;;;;;;;1.77;1.50;;;6.90;99.90;;;;;;5133563;28;20046;-87
2021/12/13 10:12:23;;;;;;;1.70;1.60;;;6.90;99.90;;;;;;5133330;27;20049;-87
2021/12/13 10:14:55;;;;;;;1.65;1.55;;;6.90;99.90;;;;;;5119387;27;20133;-87
2021/12/13 10:17:26;;;;;;;1.70;1.60;;;6.90;99.90;;;;;;5119888;27;20549;-87
2021/12/13 10:19:58;;;;;;;6.07;2.40;;;6.90;99.90;;;;;;5119616;27;20045;-87
2021/12/13 10:22:29;;;;;;;3.25;2.20;;;7.00;99.90;;;;;;5137307;27;20122;-87
2021/12/13 10:25:00;;;;;;;7.35;3.78;;;7.00;99.90;;;;;;5119123;27;20050;-87
2021/12/13 10:27:27;;;;;;;1.60;1.50;;;7.20;99.90;;;;;;5119528;27;20061;-88
2021/12/13 10:29:57;;;;;;;18.02;6.78;;;7.20;99.90;;;;;;5137226;27;20046;-87
2021/12/13 10:32:28;;;;;;;4.78;3.03;;;7.40;99.90;;;;;;5137531;27;20054;-88
2021/12/13 10:35:02;;;;;;;4.32;1.83;;;7.40;99.90;;;;;;5119291;27;20451;-87
2021/12/13 10:37:32;;;;;;;1.70;1.60;;;7.40;99.90;;;;;;5119152;27;20049;-87
2021/12/13 10:40:10;;;;;;;1.60;1.50;;;7.40;99.90;;;;;;5119383;27;20455;-87
2021/12/13 10:42:43;;;;;;;1.45;1.40;;;7.40;99.90;;;;;;5137413;27;20409;-87
2021/12/13 10:45:16;;;;;;;1.60;1.33;;;7.40;99.90;;;;;;5118960;27;20058;-87
2021/12/13 10:47:47;;;;;;;2.03;1.30;;;7.50;99.90;;;;;;5137269;27;20047;-87
2021/12/13 10:50:19;;;;;;;1.70;1.60;;;7.50;99.90;;;;;;5136859;27;20043;-87
2021/12/13 10:52:51;;;;;;;2.45;1.30;;;7.60;99.90;;;;;;5136990;27;20107;-87
2021/12/13 10:55:23;;;;;;;1.70;1.15;;;7.60;99.90;;;;;;5118923;27;20410;-87
2021/12/13 10:57:50;;;;;;;2.50;1.70;;;7.60;99.90;;;;;;5118945;27;20043;-87
2021/12/13 11:00:34;;;;;;;3.28;1.50;;;7.50;99.90;;;;;;5136120;27;20055;-87
2021/12/13 11:03:12;;;;;;;2.00;1.90;;;7.50;99.90;;;;;;5118645;27;20113;-87
2021/12/13 11:05:40;;;;;;;1.50;1.40;;;7.40;99.90;;;;;;5137173;27;20047;-87
2021/12/13 11:08:09;;;;;;;1.95;1.70;;;7.40;99.90;;;;;;5118873;27;20053;-87
2021/12/13 11:10:44;;;;;;;2.10;1.42;;;7.20;99.90;;;;;;5118500;27;20054;-87
2021/12/13 11:13:25;;;;;;;2.25;1.38;;;7.20;99.90;;;;;;5120000;27;20058;-87
2021/12/13 11:15:56;;;;;;;1.70;1.60;;;7.20;99.90;;;;;;5121912;27;20079;-87
2021/12/13 11:18:28;;;;;;;2.55;1.70;;;7.30;99.90;;;;;;5119521;27;20410;-87
2021/12/13 11:21:08;;;;;;;2.78;1.55;;;7.40;99.90;;;;;;5118764;27;20062;-86
2021/12/13 11:23:36;;;;;;;2.08;1.88;;;7.50;99.90;;;;;;5118345;27;20046;-87
2021/12/13 11:26:07;;;;;;;2.15;2.05;;;7.50;99.90;;;;;;5136676;27;20082;-87
2021/12/13 11:28:35;;;;;;;2.10;2.00;;;7.60;99.90;;;;;;5118753;27;20065;-87
2021/12/13 11:31:11;;;;;;;2.95;2.47;;;7.70;99.90;;;;;;5118200;27;20055;-88
2021/12/13 11:33:39;;;;;;;3.85;2.20;;;7.70;99.90;;;;;;5136628;27;20408;-87
2021/12/13 11:36:43;;;;;;;2.70;2.20;;;7.60;99.90;;;;;;5118798;27;20051;-87
2021/12/13 11:39:44;;;;;;;1.98;1.80;;;7.60;99.90;;;;;;5136467;27;20051;-87
2021/12/13 11:42:28;;;;;;;1.85;1.75;;;7.50;99.90;;;;;;5136231;27;20057;-87
2021/12/13 11:45:23;;;;;;;1.85;1.75;;;7.40;99.90;;;;;;5118280;27;20483;-87
2021/12/13 11:48:05;;;;;;;2.28;1.50;;;7.40;99.90;;;;;;5118451;27;20047;-87
2021/12/13 11:51:10;;;;;;;3.08;1.90;;;7.40;99.90;;;;;;5118126;27;20053;-88
2021/12/13 11:54:03;;;;;;;2.53;1.60;;;7.50;99.90;;;;;;5136014;27;20482;-88
2021/12/13 11:57:02;;;;;;;2.45;1.95;;;7.40;99.90;;;;;;5116366;27;20047;-87
2021/12/13 12:00:07;;;;;;;3.03;2.13;;;7.30;99.90;;;;;;5126647;27;20435;-87
2021/12/13 12:03:02;;;;;;;1.67;1.58;;;7.40;99.90;;;;;;5116251;27;20041;-87
2021/12/13 12:06:07;;;;;;;4.07;2.90;;;7.40;99.90;;;;;;5118069;27;20399;-87
2021/12/13 12:08:53;;;;;;;3.72;2.88;;;7.40;99.90;;;;;;5117956;27;20051;-87
2021/12/13 12:11:36;;;;;;;2.67;2.22;;;7.40;99.90;;;;;;5135773;27;20058;-87
2021/12/13 12:14:10;;;;;;;6.00;2.20;;;7.40;99.90;;;;;;5117693;27;20501;-88
2021/12/13 12:16:45;;;;;;;3.75;2.45;;;7.40;99.90;;;;;;5117756;27;20051;-87
2021/12/13 12:19:25;;;;;;;7.10;3.92;;;7.40;99.90;;;;;;5117286;27;20066;-88
2021/12/13 12:22:05;;;;;;;5.65;4.00;;;7.40;99.90;;;;;;5117399;27;20104;-87
2021/12/13 12:24:41;;;;;;;4.55;3.53;;;7.40;99.90;;;;;;5117625;27;20071;-87
2021/12/13 12:27:25;;;;;;;3.13;2.60;;;7.40;99.90;;;;;;5135303;27;20090;-87
2021/12/13 12:29:57;;;;;;;4.75;3.25;;;7.40;99.90;;;;;;5134796;27;20062;-87
2021/12/13 12:32:30;;;;;;;1.93;1.80;;;7.40;99.90;;;;;;5118404;27;20587;-88
2021/12/13 12:35:11;;;;;;;2.13;2.03;;;7.40;99.90;;;;;;5135392;27;20089;-88
2021/12/13 12:37:56;;;;;;;2.90;2.42;;;7.40;99.90;;;;;;5117017;27;20058;-87
2021/12/13 12:40:37;;;;;;;4.45;1.83;;;7.40;99.90;;;;;;5134716;27;20055;-87
2021/12/13 12:43:19;;;;;;;2.67;2.28;;;7.50;99.90;;;;;;5134594;27;20053;-87
2021/12/13 12:45:51;;;;;;;2.35;2.03;;;7.50;99.90;;;;;;5117203;27;20053;-88
2021/12/13 12:48:32;;;;;;;3.38;2.42;;;7.60;99.90;;;;;;5116911;27;20053;-88
2021/12/13 12:51:22;;;;;;;4.22;2.78;;;7.60;99.90;;;;;;5134759;27;20039;-87
2021/12/13 12:53:52;;;;;;;6.15;2.92;;;7.60;99.90;;;;;;5135091;27;20408;-88
2021/12/13 12:56:50;;;;;;;4.55;2.63;;;7.70;99.90;;;;;;5134893;27;20051;-87
2021/12/13 12:59:29;;;;;;;6.93;2.90;;;7.70;99.90;;;;;;5128223;27;20562;-87
2021/12/13 13:02:10;;;;;;;10.15;6.57;;;7.70;99.90;;;;;;5117033;27;20047;-88
2021/12/13 13:04:44;;;;;;;11.30;7.82;;;7.80;99.90;;;;;;5116443;27;20426;-88
2021/12/13 13:07:14;;;;;;;10.07;7.68;;;7.90;99.90;;;;;;5116325;27;20065;-88
2021/12/13 13:09:46;;;;;;;4.88;4.05;;;7.90;99.90;;;;;;5115994;27;20045;-88
2021/12/13 13:12:36;;;;;;;6.93;3.28;;;8.00;99.90;;;;;;5116677;27;20430;-88
2021/12/13 13:15:10;;;;;;;3.05;2.85;;;8.00;99.90;;;;;;5116380;27;20380;-87
2021/12/13 13:17:38;;;;;;;;;;;8.00;99.90;;;;;;5116238;27;20043;-88
2021/12/13 13:20:06;;;;;;;5.88;3.97;;;7.90;99.90;;;;;;5134346;27;19998;-87
2021/12/13 13:22:37;;;;;;;3.88;2.90;;;7.90;99.90;;;;;;5115543;27;20051;-87
2021/12/13 13:25:29;;;;;;;4.53;4.05;;;7.90;99.90;;;;;;5117871;27;20043;-87
2021/12/13 13:27:58;;;;;;;6.82;3.67;;;7.90;99.90;;;;;;5132064;27;20051;-88
2021/12/13 13:30:32;;;;;;;2.85;2.65;;;7.90;99.90;;;;;;5113584;27;20396;-88
2021/12/13 13:32:59;;;;;;;2.83;2.63;;;7.90;99.90;;;;;;5114914;28;20046;-88
2021/12/13 13:35:26;;;;;;;3.13;2.28;;;7.90;99.90;;;;;;5116325;28;20497;-88
2021/12/13 13:38:03;;;;;;;3.35;2.30;;;7.90;99.90;;;;;;5117604;28;20402;-87
2021/12/13 13:40:33;;;;;;;3.13;2.33;;;7.80;99.90;;;;;;5116366;28;20047;-88
2021/12/13 13:43:06;;;;;;;3.33;2.40;;;7.80;99.90;;;;;;5133960;28;20049;-87
2021/12/13 13:45:38;;;;;;;;;;;7.70;99.90;;;;;;5116740;28;20514;-88
2021/12/13 13:48:09;;;;;;;3.20;2.90;;;7.80;99.90;;;;;;5121107;27;19920;-88
2021/12/13 13:50:44;;;;;;;3.85;3.58;;;7.80;99.90;;;;;;5121100;27;20043;-88
2021/12/13 13:53:30;;;;;;;2.97;2.85;;;7.70;99.90;;;;;;5120038;27;20043;-88